LFPM 100230Z AUTO 27005KT 9999 BKN021 BKN036 17/15 Q1013

Les avions qui composent notre flotte

Avion Robin DR400-180

Idéal pour les voyages, équipé d'un Pilote Automatique

F-GGJV


F-GGJV Planche